createdAt,value
2018-12-27T00:00:11.430Z,0.00
2018-12-27T00:01:11.437Z,0.00
2018-12-27T00:02:11.449Z,0.00
2018-12-27T00:03:11.457Z,0.00
2018-12-27T00:04:11.470Z,0.00
2018-12-27T00:05:11.477Z,0.00
2018-12-27T00:06:11.554Z,0.00
2018-12-27T00:07:11.505Z,0.00
2018-12-27T00:08:11.516Z,0.00
2018-12-27T00:09:11.552Z,0.00
2018-12-27T00:10:11.535Z,0.00
2018-12-27T00:11:11.546Z,0.00
2018-12-27T00:12:11.561Z,0.00
2018-12-27T00:13:11.581Z,0.00
2018-12-27T00:14:11.589Z,0.00
2018-12-27T00:15:11.593Z,0.00
2018-12-27T00:16:11.606Z,0.00
2018-12-27T00:17:11.625Z,0.00
2018-12-27T00:18:11.629Z,0.00
2018-12-27T00:19:11.672Z,0.00
2018-12-27T00:20:11.644Z,0.00
2018-12-27T00:21:11.667Z,0.00
2018-12-27T00:22:11.678Z,0.00
2018-12-27T00:23:11.694Z,0.00
2018-12-27T00:24:11.697Z,0.00
2018-12-27T00:25:11.708Z,0.00
2018-12-27T00:26:11.734Z,0.00
2018-12-27T00:27:11.726Z,0.00
2018-12-27T00:28:11.739Z,0.00
2018-12-27T00:29:11.754Z,0.00
2018-12-27T00:30:11.762Z,0.00
2018-12-27T00:31:11.775Z,0.00
2018-12-27T00:32:11.784Z,0.00
2018-12-27T00:33:11.796Z,0.00
2018-12-27T00:34:11.808Z,0.00
2018-12-27T00:35:11.817Z,0.00
2018-12-27T00:36:11.824Z,0.00
2018-12-27T00:37:11.838Z,0.00
2018-12-27T00:38:11.853Z,0.00
2018-12-27T00:39:11.865Z,0.00
2018-12-27T00:40:11.872Z,0.00
2018-12-27T00:41:11.888Z,0.00
2018-12-27T00:42:11.897Z,0.00
2018-12-27T00:43:11.908Z,0.00
2018-12-27T00:44:11.923Z,0.00
2018-12-27T00:45:11.936Z,0.00
2018-12-27T00:46:11.946Z,0.00
2018-12-27T00:47:11.956Z,0.00
2018-12-27T00:48:11.970Z,0.00
2018-12-27T00:49:11.981Z,0.00
2018-12-27T00:50:12.002Z,0.00
2018-12-27T00:51:12.004Z,0.00
2018-12-27T00:52:12.009Z,0.00
2018-12-27T00:53:12.019Z,0.00
2018-12-27T00:54:12.034Z,0.00
2018-12-27T00:55:12.048Z,0.00
2018-12-27T00:56:12.056Z,0.00
2018-12-27T00:57:12.068Z,0.00
2018-12-27T00:58:12.078Z,0.00
2018-12-27T00:59:12.088Z,0.00
2018-12-27T01:00:12.102Z,0.00
2018-12-27T01:01:12.136Z,0.00
2018-12-27T01:02:12.126Z,0.00
2018-12-27T01:03:12.134Z,0.00
2018-12-27T01:04:12.155Z,0.00
2018-12-27T01:05:12.159Z,0.00
2018-12-27T01:06:12.170Z,0.00
2018-12-27T01:07:12.185Z,0.00
2018-12-27T01:08:12.197Z,0.00
2018-12-27T01:09:12.205Z,0.00
2018-12-27T01:10:12.212Z,0.00
2018-12-27T01:11:12.222Z,0.00
2018-12-27T01:12:12.236Z,0.00
2018-12-27T01:13:12.288Z,0.00
2018-12-27T01:14:12.260Z,0.00
2018-12-27T01:15:12.274Z,0.00
2018-12-27T01:16:12.281Z,0.00
2018-12-27T01:17:12.294Z,0.00
2018-12-27T01:18:12.304Z,0.00
2018-12-27T01:19:12.313Z,0.00
2018-12-27T01:20:12.337Z,0.00
2018-12-27T01:21:12.340Z,0.00
2018-12-27T01:22:12.344Z,0.00
2018-12-27T01:23:12.365Z,0.00
2018-12-27T01:24:12.375Z,0.00
2018-12-27T01:25:12.382Z,0.00
2018-12-27T01:26:12.399Z,0.00
2018-12-27T01:27:12.405Z,0.00
2018-12-27T01:28:12.420Z,0.00
2018-12-27T01:29:12.428Z,0.00
2018-12-27T01:30:12.440Z,0.00
2018-12-27T01:31:12.453Z,0.00
2018-12-27T01:32:12.464Z,0.00
2018-12-27T01:33:18.716Z,0.00
2018-12-27T01:34:12.481Z,0.00
2018-12-27T01:35:12.493Z,0.00
2018-12-27T01:36:12.525Z,0.00
2018-12-27T01:37:12.529Z,0.00
2018-12-27T01:38:12.528Z,0.00
2018-12-27T01:39:12.544Z,0.00
2018-12-27T01:40:12.551Z,0.00
2018-12-27T01:41:12.559Z,0.00
2018-12-27T01:42:12.575Z,0.00
2018-12-27T01:43:12.585Z,0.00
2018-12-27T01:44:12.591Z,0.00
2018-12-27T01:45:12.603Z,0.00
2018-12-27T01:46:12.618Z,0.00
2018-12-27T01:47:12.631Z,0.00
2018-12-27T01:48:12.641Z,0.00
2018-12-27T01:49:12.656Z,0.00
2018-12-27T01:50:12.663Z,0.00
2018-12-27T01:51:12.677Z,0.00
2018-12-27T01:52:12.683Z,0.00
2018-12-27T01:53:12.694Z,0.00
2018-12-27T01:54:12.710Z,0.00
2018-12-27T01:55:12.718Z,0.00
2018-12-27T01:56:12.728Z,0.00
2018-12-27T01:57:12.739Z,0.00
2018-12-27T01:58:12.749Z,0.00
2018-12-27T01:59:12.763Z,0.00
2018-12-27T02:00:12.779Z,0.00
2018-12-27T02:01:12.781Z,0.00
2018-12-27T02:02:12.798Z,0.00
2018-12-27T02:03:12.821Z,0.00
2018-12-27T02:04:12.824Z,0.00
2018-12-27T02:05:12.829Z,0.00
2018-12-27T02:06:12.837Z,0.00
2018-12-27T02:07:12.877Z,0.00
2018-12-27T02:08:12.859Z,0.00
2018-12-27T02:09:12.872Z,0.00
2018-12-27T02:10:12.893Z,0.00
2018-12-27T02:11:12.896Z,0.00
2018-12-27T02:12:12.905Z,0.00
2018-12-27T02:13:12.920Z,0.00
2018-12-27T02:14:12.927Z,0.00
2018-12-27T02:15:12.936Z,0.00
2018-12-27T02:16:12.950Z,0.00
2018-12-27T02:17:12.957Z,0.00
2018-12-27T02:18:12.977Z,0.00
2018-12-27T02:19:12.983Z,0.00
2018-12-27T02:20:12.993Z,0.00
2018-12-27T02:21:13.009Z,0.00
2018-12-27T02:22:13.039Z,0.00
2018-12-27T02:23:13.038Z,0.00
2018-12-27T02:24:13.041Z,0.00
2018-12-27T02:25:13.048Z,0.00
2018-12-27T02:26:13.056Z,0.00
2018-12-27T02:27:13.071Z,0.00
2018-12-27T02:28:13.084Z,0.00
2018-12-27T02:29:13.095Z,0.00
2018-12-27T02:30:13.106Z,0.00
2018-12-27T02:31:13.116Z,0.00
2018-12-27T02:32:13.126Z,0.00
2018-12-27T02:33:13.136Z,0.00
2018-12-27T02:34:13.152Z,0.00
2018-12-27T02:35:13.163Z,0.00
2018-12-27T02:36:13.279Z,0.00
2018-12-27T02:37:13.189Z,0.00
2018-12-27T02:38:13.198Z,0.00
2018-12-27T02:39:13.205Z,0.00
2018-12-27T02:40:13.217Z,0.00
2018-12-27T02:41:13.230Z,0.00
2018-12-27T02:42:13.237Z,0.00
2018-12-27T02:43:13.251Z,0.00
2018-12-27T02:44:13.261Z,0.00
2018-12-27T02:45:13.271Z,0.00
2018-12-27T02:46:13.293Z,0.00
2018-12-27T02:47:13.298Z,0.00
2018-12-27T02:48:13.313Z,0.00
2018-12-27T02:49:13.317Z,0.00
2018-12-27T02:50:13.330Z,0.00
2018-12-27T02:51:13.338Z,0.00
2018-12-27T02:52:13.351Z,0.00
2018-12-27T02:53:13.359Z,0.00
2018-12-27T02:54:13.375Z,0.00
2018-12-27T02:55:13.381Z,0.00
2018-12-27T02:56:13.391Z,0.00
2018-12-27T02:57:13.409Z,0.00
2018-12-27T02:58:13.417Z,0.00
2018-12-27T02:59:13.425Z,0.00
2018-12-27T03:00:13.437Z,0.00
2018-12-27T03:01:13.447Z,0.00
2018-12-27T03:02:13.478Z,0.00
2018-12-27T03:03:13.468Z,0.00
2018-12-27T03:04:13.480Z,0.00
2018-12-27T03:05:13.491Z,0.00
2018-12-27T03:06:13.502Z,0.00
2018-12-27T03:07:13.513Z,0.00
2018-12-27T03:08:13.545Z,0.00
2018-12-27T03:09:13.539Z,0.00
2018-12-27T03:38:19.204Z,0.00
2018-12-27T03:39:19.179Z,0.00
2018-12-27T03:41:11.093Z,0.00
2018-12-27T03:42:11.068Z,0.00
2018-12-27T03:44:02.965Z,0.00
2018-12-27T03:45:02.957Z,0.00
2018-12-27T03:46:54.883Z,0.00
2018-12-27T03:47:54.858Z,0.00
2018-12-27T03:49:46.780Z,0.00
2018-12-27T03:50:46.757Z,0.00
2018-12-27T03:52:38.673Z,0.00
2018-12-27T03:53:38.653Z,0.00
2018-12-27T03:55:30.574Z,0.00
2018-12-27T03:56:30.562Z,0.00
2018-12-27T03:58:22.458Z,0.00
2018-12-27T03:59:22.470Z,0.00
2018-12-27T04:01:14.373Z,0.00
2018-12-27T04:02:14.355Z,0.00
2018-12-27T04:04:06.269Z,0.00
2018-12-27T04:05:06.270Z,0.00
2018-12-27T04:06:58.201Z,0.00
2018-12-27T04:07:58.185Z,0.00
2018-12-27T04:09:50.099Z,0.00
2018-12-27T04:10:50.105Z,0.00
2018-12-27T04:12:42.028Z,0.00
2018-12-27T04:13:42.009Z,0.00
2018-12-27T04:15:33.926Z,0.00
2018-12-27T04:16:33.909Z,0.00
2018-12-27T04:18:26.310Z,0.00
2018-12-27T04:19:26.313Z,0.00
2018-12-27T04:21:18.246Z,0.00
2018-12-27T04:22:18.217Z,0.00
2018-12-27T04:24:10.108Z,0.00
2018-12-27T04:25:10.111Z,0.00
2018-12-27T04:27:02.034Z,0.00
2018-12-27T04:28:02.016Z,0.00
2018-12-27T04:29:53.921Z,0.00
2018-12-27T04:30:53.923Z,0.00
2018-12-27T04:32:45.865Z,0.00
2018-12-27T04:33:45.833Z,0.00
2018-12-27T04:35:37.746Z,0.00
2018-12-27T04:36:37.737Z,0.00
2018-12-27T04:38:29.670Z,0.00
2018-12-27T04:39:29.640Z,0.00
2018-12-27T04:41:21.583Z,0.00
2018-12-27T04:42:21.564Z,0.00
2018-12-27T04:44:13.451Z,0.00
2018-12-27T04:45:13.455Z,0.00
2018-12-27T04:47:05.390Z,0.00
2018-12-27T04:48:05.372Z,0.00
2018-12-27T04:49:57.281Z,0.00
2018-12-27T04:50:57.283Z,0.00
2018-12-27T04:52:49.229Z,0.00
2018-12-27T04:53:49.232Z,0.00
2018-12-27T04:55:41.120Z,0.00
2018-12-27T04:56:41.125Z,0.00
2018-12-27T04:58:33.057Z,0.00
2018-12-27T04:59:33.034Z,0.00
2018-12-27T05:01:24.970Z,0.00
2018-12-27T05:02:24.940Z,0.00
2018-12-27T05:04:18.387Z,0.00
2018-12-27T05:05:16.847Z,0.00
2018-12-27T05:07:08.768Z,0.00
2018-12-27T05:08:08.756Z,0.00
2018-12-27T05:10:00.662Z,0.00
2018-12-27T05:11:00.665Z,0.00
2018-12-27T05:12:52.590Z,0.00
2018-12-27T05:13:52.582Z,0.00
2018-12-27T05:15:44.479Z,0.00
2018-12-27T05:16:44.483Z,0.00
2018-12-27T05:18:36.407Z,0.00
2018-12-27T05:19:36.395Z,0.00
2018-12-27T05:21:28.296Z,0.00
2018-12-27T05:22:28.300Z,0.00
2018-12-27T05:24:20.226Z,0.00
2018-12-27T05:25:20.202Z,0.00
2018-12-27T05:27:12.154Z,0.00
2018-12-27T05:28:12.126Z,0.00
2018-12-27T05:30:04.020Z,0.00
2018-12-27T05:31:04.028Z,0.00
2018-12-27T05:32:56.448Z,0.00
2018-12-27T05:33:56.432Z,0.00
2018-12-27T05:35:48.833Z,0.00
2018-12-27T05:36:48.837Z,0.00
2018-12-27T05:38:40.763Z,0.00
2018-12-27T05:39:40.739Z,0.00
2018-12-27T05:41:32.648Z,0.00
2018-12-27T05:42:32.644Z,0.00
2018-12-27T05:44:24.582Z,0.00
2018-12-27T05:45:24.553Z,0.00
2018-12-27T05:47:16.474Z,0.00
2018-12-27T05:48:16.464Z,0.00
2018-12-27T05:50:08.357Z,0.00
2018-12-27T05:51:08.379Z,0.00
2018-12-27T05:53:00.302Z,0.00
2018-12-27T05:54:00.266Z,0.00
2018-12-27T05:55:00.276Z,0.00
2018-12-27T05:56:00.287Z,0.00
2018-12-27T05:57:00.296Z,0.00
2018-12-27T05:58:00.316Z,0.00
2018-12-27T05:59:00.320Z,0.00
2018-12-27T06:00:00.330Z,0.00
2018-12-27T06:01:00.340Z,0.00
2018-12-27T06:02:00.349Z,0.00
2018-12-27T06:03:00.362Z,0.00
2018-12-27T06:04:00.373Z,0.00
2018-12-27T06:05:00.380Z,0.00
2018-12-27T06:06:00.391Z,0.00
2018-12-27T06:07:00.406Z,0.00
2018-12-27T06:08:00.409Z,0.00
2018-12-27T06:09:00.425Z,0.00
2018-12-27T06:10:00.433Z,0.00
2018-12-27T06:11:00.446Z,0.00
2018-12-27T06:12:00.452Z,0.00
2018-12-27T06:13:00.466Z,0.00
2018-12-27T06:14:00.471Z,0.00
2018-12-27T06:15:00.488Z,0.00
2018-12-27T06:16:00.496Z,0.00
2018-12-27T06:17:00.505Z,0.00
2018-12-27T06:18:00.519Z,0.00
2018-12-27T06:19:00.524Z,0.00
2018-12-27T06:20:00.537Z,0.00
2018-12-27T06:21:00.544Z,0.00
2018-12-27T06:22:00.558Z,0.00
2018-12-27T06:23:00.582Z,0.00
2018-12-27T06:24:00.586Z,0.00
2018-12-27T06:25:00.592Z,0.00
2018-12-27T06:26:00.600Z,0.00
2018-12-27T06:27:00.606Z,0.00
2018-12-27T06:28:00.618Z,0.00
2018-12-27T06:29:00.626Z,0.00
2018-12-27T06:30:02.410Z,0.00
2018-12-27T06:31:00.650Z,0.00
2018-12-27T06:32:00.657Z,0.00
2018-12-27T06:33:00.666Z,0.00
2018-12-27T06:34:00.759Z,0.00
2018-12-27T06:35:00.691Z,0.00
2018-12-27T06:36:00.698Z,0.00
2018-12-27T06:37:00.711Z,0.00
2018-12-27T06:38:00.724Z,0.00
2018-12-27T06:39:00.736Z,0.00
2018-12-27T06:40:00.743Z,0.00
2018-12-27T06:41:00.753Z,0.00
2018-12-27T06:42:00.763Z,0.00
2018-12-27T06:43:00.771Z,0.00
2018-12-27T06:44:00.781Z,0.00
2018-12-27T06:45:00.796Z,0.00
2018-12-27T06:46:00.803Z,0.00
2018-12-27T06:47:00.809Z,0.00
2018-12-27T06:48:00.842Z,0.00
2018-12-27T06:49:00.835Z,0.00
2018-12-27T06:50:00.843Z,0.00
2018-12-27T06:51:00.857Z,0.00
2018-12-27T06:52:00.868Z,0.00
2018-12-27T06:53:00.877Z,0.00
2018-12-27T06:54:00.892Z,0.00
2018-12-27T06:55:00.892Z,0.00
2018-12-27T06:56:00.903Z,0.00
2018-12-27T06:57:00.916Z,0.00
2018-12-27T06:58:00.924Z,0.00
2018-12-27T06:59:00.939Z,0.00
2018-12-27T07:00:00.966Z,0.00
2018-12-27T07:01:00.953Z,0.00
2018-12-27T07:02:00.962Z,0.00
2018-12-27T07:03:00.976Z,0.00
2018-12-27T07:04:00.983Z,4.00
2018-12-27T07:05:00.997Z,4.00
2018-12-27T07:06:01.009Z,0.00
2018-12-27T07:07:01.015Z,4.00
2018-12-27T07:08:01.023Z,4.00
2018-12-27T07:09:01.035Z,0.00
2018-12-27T07:10:01.045Z,4.00
2018-12-27T07:11:01.062Z,4.00
2018-12-27T07:12:01.068Z,4.00
2018-12-27T07:13:01.076Z,4.00
2018-12-27T07:14:01.088Z,8.00
2018-12-27T07:15:01.105Z,8.00
2018-12-27T07:16:01.106Z,8.00
2018-12-27T07:17:01.115Z,12.00
2018-12-27T07:18:01.127Z,12.00
2018-12-27T07:19:01.137Z,16.00
2018-12-27T07:20:01.156Z,16.00
2018-12-27T07:21:01.177Z,16.00
2018-12-27T07:22:01.179Z,20.00
2018-12-27T07:23:01.180Z,20.00
2018-12-27T07:24:01.190Z,24.00
2018-12-27T07:25:01.200Z,24.00
2018-12-27T07:26:01.207Z,28.00
2018-12-27T07:27:01.217Z,32.00
2018-12-27T07:28:01.229Z,36.00
2018-12-27T07:29:01.242Z,40.00
2018-12-27T07:30:01.258Z,44.00
2018-12-27T07:31:01.258Z,48.00
2018-12-27T07:32:01.269Z,52.00
2018-12-27T07:33:01.280Z,60.00
2018-12-27T07:34:01.310Z,68.00
2018-12-27T07:35:01.299Z,72.00
2018-12-27T07:36:01.312Z,84.00
2018-12-27T07:37:01.320Z,96.00
2018-12-27T07:38:01.331Z,104.00
2018-12-27T07:39:01.419Z,120.00
2018-12-27T07:40:01.362Z,136.00
2018-12-27T07:41:01.361Z,148.00
2018-12-27T07:42:01.372Z,164.00
2018-12-27T07:43:01.385Z,176.00
2018-12-27T07:44:01.391Z,188.00
2018-12-27T07:45:01.402Z,200.00
2018-12-27T07:46:01.416Z,212.00
2018-12-27T07:47:01.421Z,224.00
2018-12-27T07:48:01.441Z,232.00
2018-12-27T07:49:01.448Z,240.00
2018-12-27T07:50:01.454Z,248.00
2018-12-27T07:51:01.464Z,252.00
2018-12-27T07:52:01.477Z,260.00
2018-12-27T07:53:01.484Z,268.00
2018-12-27T07:54:01.494Z,276.00
2018-12-27T07:55:01.506Z,284.00
2018-12-27T07:56:01.517Z,288.00
2018-12-27T07:57:01.534Z,296.00
2018-12-27T07:58:01.539Z,300.00
2018-12-27T07:59:01.548Z,312.00
2018-12-27T08:00:01.566Z,316.00
2018-12-27T08:01:01.592Z,328.00
2018-12-27T08:02:01.578Z,336.00
2018-12-27T08:03:01.587Z,348.00
2018-12-27T08:04:01.597Z,360.00
2018-12-27T08:05:04.147Z,372.00
2018-12-27T08:06:01.622Z,384.00
2018-12-27T08:07:01.626Z,400.00
2018-12-27T08:08:01.638Z,420.00
2018-12-27T08:09:01.650Z,432.00
2018-12-27T08:10:01.660Z,436.00
2018-12-27T08:11:01.669Z,456.00
2018-12-27T08:12:01.748Z,464.00
2018-12-27T08:13:01.699Z,480.00
2018-12-27T08:14:01.698Z,488.00
2018-12-27T08:15:01.721Z,508.00
2018-12-27T08:16:01.723Z,524.00
2018-12-27T08:17:01.734Z,544.00
2018-12-27T08:18:01.744Z,556.00
2018-12-27T08:19:01.750Z,568.00
2018-12-27T08:20:01.775Z,580.00
2018-12-27T08:21:01.776Z,596.00
2018-12-27T08:22:01.784Z,608.00
2018-12-27T08:23:01.793Z,620.00
2018-12-27T08:24:01.807Z,632.00
2018-12-27T08:25:01.845Z,648.00
2018-12-27T08:26:01.824Z,664.00
2018-12-27T08:27:01.842Z,680.00
2018-12-27T08:28:01.848Z,696.00
2018-12-27T08:29:01.857Z,716.00
2018-12-27T08:30:01.869Z,732.00
2018-12-27T08:31:01.883Z,748.00
2018-12-27T08:32:01.887Z,772.00
2018-12-27T08:33:01.901Z,792.00
2018-12-27T08:34:01.909Z,812.00
2018-12-27T08:35:01.919Z,836.00
2018-12-27T08:36:01.935Z,856.00
2018-12-27T08:37:01.946Z,876.00
2018-12-27T08:38:01.953Z,900.00
2018-12-27T08:39:01.964Z,920.00
2018-12-27T08:40:01.975Z,940.00
2018-12-27T08:41:02.019Z,960.00
2018-12-27T08:42:01.995Z,976.00
2018-12-27T08:43:02.035Z,1000.00
2018-12-27T08:44:02.022Z,1020.00
2018-12-27T08:45:02.099Z,1040.00
2018-12-27T08:46:02.066Z,1060.00
2018-12-27T08:47:02.064Z,1084.00
2018-12-27T08:48:02.061Z,1104.00
2018-12-27T08:49:02.068Z,1128.00
2018-12-27T08:50:02.077Z,1152.00
2018-12-27T08:51:02.088Z,1172.00
2018-12-27T08:52:02.124Z,1200.00
2018-12-27T08:53:02.114Z,1224.00
2018-12-27T08:54:02.154Z,1248.00
2018-12-27T08:55:02.129Z,1276.00
2018-12-27T08:56:02.163Z,1308.00
2018-12-27T08:57:02.151Z,1336.00
2018-12-27T08:58:02.163Z,1364.00
2018-12-27T08:59:02.211Z,1388.00
2018-12-27T09:00:02.207Z,1416.00
2018-12-27T09:01:02.197Z,1448.00
2018-12-27T09:02:02.216Z,1472.00
2018-12-27T09:03:02.229Z,1496.00
2018-12-27T09:04:02.238Z,1520.00
2018-12-27T09:05:02.242Z,1548.00
2018-12-27T09:06:02.251Z,1568.00
2018-12-27T09:07:02.260Z,1592.00
2018-12-27T09:08:02.276Z,1616.00
2018-12-27T09:09:02.304Z,1644.00
2018-12-27T09:10:02.316Z,1668.00
2018-12-27T09:11:02.317Z,1696.00
2018-12-27T09:12:02.316Z,1724.00
2018-12-27T09:13:02.328Z,1756.00
2018-12-27T09:14:02.336Z,1784.00
2018-12-27T09:15:02.348Z,1820.00
2018-12-27T09:16:02.360Z,1852.00
2018-12-27T09:17:02.373Z,1880.00
2018-12-27T09:18:02.382Z,1908.00
2018-12-27T09:19:02.394Z,1932.00
2018-12-27T09:20:02.419Z,1952.00
2018-12-27T09:21:02.439Z,1972.00
2018-12-27T09:22:02.435Z,2000.00
2018-12-27T09:23:02.446Z,2024.00
2018-12-27T09:24:02.448Z,2020.00
2018-12-27T09:25:02.458Z,2024.00
2018-12-27T09:26:02.472Z,2036.00
2018-12-27T09:27:02.493Z,2044.00
2018-12-27T09:28:02.494Z,2056.00
2018-12-27T09:29:02.501Z,2088.00
2018-12-27T09:30:02.518Z,2136.00
2018-12-27T09:31:02.526Z,2148.00
2018-12-27T09:32:02.535Z,2152.00
2018-12-27T09:33:02.568Z,2164.00
2018-12-27T09:34:02.563Z,2160.00
2018-12-27T09:35:02.568Z,2188.00
2018-12-27T09:36:02.582Z,2212.00
2018-12-27T09:37:02.609Z,2228.00
2018-12-27T09:38:02.612Z,2216.00
2018-12-27T09:39:02.623Z,2160.00
2018-12-27T09:40:02.629Z,2140.00
2018-12-27T09:41:02.644Z,2124.00
2018-12-27T09:42:02.656Z,2124.00
2018-12-27T09:43:02.673Z,2132.00
2018-12-27T09:44:02.676Z,2132.00
2018-12-27T09:45:02.689Z,2148.00
2018-12-27T09:46:02.713Z,2148.00
2018-12-27T09:47:02.711Z,2152.00
2018-12-27T09:48:02.740Z,2152.00
2018-12-27T09:49:02.731Z,2156.00
2018-12-27T09:50:02.743Z,2180.00
2018-12-27T09:51:02.754Z,2204.00
2018-12-27T09:52:02.772Z,2212.00
2018-12-27T09:53:02.780Z,2216.00
2018-12-27T09:54:02.828Z,2220.00
2018-12-27T09:55:02.806Z,2236.00
2018-12-27T09:56:02.817Z,2236.00
2018-12-27T09:57:02.854Z,2212.00
2018-12-27T09:58:02.837Z,2200.00
2018-12-27T09:59:02.857Z,2216.00
2018-12-27T10:00:02.867Z,2224.00
2018-12-27T10:01:02.878Z,2216.00
2018-12-27T10:02:02.891Z,2180.00
2018-12-27T10:03:02.900Z,2152.00
2018-12-27T10:04:02.917Z,2116.00
2018-12-27T10:05:02.923Z,2100.00
2018-12-27T10:06:04.536Z,2092.00
2018-12-27T10:07:02.952Z,2088.00
2018-12-27T10:08:02.964Z,2076.00
2018-12-27T10:09:02.975Z,2068.00
2018-12-27T10:10:02.988Z,2060.00
2018-12-27T10:11:02.998Z,2068.00
2018-12-27T10:12:03.047Z,2080.00
2018-12-27T10:13:03.025Z,2088.00
2018-12-27T10:14:03.032Z,2112.00
2018-12-27T10:15:03.046Z,2124.00
2018-12-27T10:16:03.054Z,2136.00
2018-12-27T10:17:03.069Z,2144.00
2018-12-27T10:18:03.085Z,2140.00
2018-12-27T10:19:03.092Z,2128.00
2018-12-27T10:20:03.106Z,2108.00
2018-12-27T10:21:03.114Z,2100.00
2018-12-27T10:22:03.157Z,2084.00
2018-12-27T10:23:03.141Z,2068.00
2018-12-27T10:24:03.153Z,2060.00
2018-12-27T10:25:03.163Z,2056.00
2018-12-27T10:26:03.174Z,2068.00
2018-12-27T10:27:03.198Z,2080.00
2018-12-27T10:28:03.203Z,2088.00
2018-12-27T10:29:03.218Z,2104.00
2018-12-27T10:30:03.239Z,2140.00
2018-12-27T10:31:03.240Z,2212.00
2018-12-27T10:32:03.264Z,2248.00
2018-12-27T10:33:03.263Z,2248.00
2018-12-27T10:34:03.278Z,2300.00
2018-12-27T10:35:03.295Z,2272.00
2018-12-27T10:36:03.301Z,2240.00
2018-12-27T10:37:03.314Z,2216.00
2018-12-27T10:38:03.326Z,2148.00
2018-12-27T10:39:03.348Z,2128.00
2018-12-27T10:40:03.350Z,2148.00
2018-12-27T10:41:03.363Z,2180.00
2018-12-27T10:42:03.372Z,2192.00
2018-12-27T10:43:03.388Z,2216.00
2018-12-27T10:44:03.402Z,2236.00
2018-12-27T10:45:03.418Z,2220.00
2018-12-27T10:46:03.430Z,2224.00
2018-12-27T10:47:03.435Z,2224.00
2018-12-27T10:48:03.453Z,2236.00
2018-12-27T10:49:03.465Z,2244.00
2018-12-27T10:50:03.486Z,2256.00
2018-12-27T10:51:03.488Z,2284.00
2018-12-27T10:52:03.500Z,2308.00
2018-12-27T10:53:03.511Z,2376.00
2018-12-27T10:54:03.525Z,2408.00
2018-12-27T10:55:03.536Z,2456.00
2018-12-27T10:56:03.551Z,2464.00
2018-12-27T10:57:03.564Z,2496.00
2018-12-27T10:58:03.580Z,2540.00
2018-12-27T10:59:03.589Z,2572.00
2018-12-27T11:00:03.600Z,2600.00
2018-12-27T11:01:03.607Z,2544.00
2018-12-27T11:02:03.620Z,2508.00
2018-12-27T11:03:03.638Z,2540.00
2018-12-27T11:04:03.656Z,2556.00
2018-12-27T11:05:03.666Z,2552.00
2018-12-27T11:06:03.681Z,2488.00
2018-12-27T11:07:03.683Z,2484.00
2018-12-27T11:08:03.703Z,2480.00
2018-12-27T11:09:03.721Z,2448.00
2018-12-27T11:10:03.723Z,2428.00
2018-12-27T11:11:03.734Z,2392.00
2018-12-27T11:12:03.754Z,2356.00
2018-12-27T11:13:03.783Z,2296.00
2018-12-27T11:14:03.775Z,2264.00
2018-12-27T11:15:03.823Z,2224.00
2018-12-27T11:16:03.799Z,2200.00
2018-12-27T11:17:03.817Z,2220.00
2018-12-27T11:18:03.824Z,2216.00
2018-12-27T11:19:03.837Z,2212.00
2018-12-27T11:20:03.854Z,2224.00
2018-12-27T11:21:03.863Z,2196.00
2018-12-27T11:22:03.879Z,2220.00
2018-12-27T11:23:03.889Z,2260.00
2018-12-27T11:24:03.906Z,2300.00
2018-12-27T11:25:03.918Z,2308.00
2018-12-27T11:26:03.927Z,2296.00
2018-12-27T11:27:03.945Z,2336.00
2018-12-27T11:28:03.952Z,2356.00
2018-12-27T11:29:03.972Z,2352.00
2018-12-27T11:30:03.975Z,2332.00
2018-12-27T11:31:03.990Z,2352.00
2018-12-27T11:32:04.008Z,2372.00
2018-12-27T11:33:04.014Z,2396.00
2018-12-27T11:34:04.031Z,2372.00
2018-12-27T11:35:04.041Z,2340.00
2018-12-27T11:36:04.055Z,2368.00
2018-12-27T11:37:04.068Z,2360.00
2018-12-27T11:38:04.078Z,2356.00
2018-12-27T11:39:04.096Z,2324.00
2018-12-27T11:40:04.110Z,2300.00
2018-12-27T11:41:04.118Z,2296.00
2018-12-27T11:42:04.129Z,2244.00
2018-12-27T11:43:04.144Z,2232.00
2018-12-27T11:44:04.172Z,2256.00
2018-12-27T11:45:04.184Z,2348.00
2018-12-27T11:46:04.186Z,2376.00
2018-12-27T11:47:04.197Z,2396.00
2018-12-27T11:48:04.206Z,2380.00
2018-12-27T11:49:04.224Z,2368.00
2018-12-27T11:50:04.234Z,2360.00
2018-12-27T11:51:04.246Z,2396.00
2018-12-27T11:52:04.266Z,2492.00
2018-12-27T11:53:04.348Z,2516.00
2018-12-27T11:54:04.285Z,2512.00
2018-12-27T11:55:04.307Z,2504.00
2018-12-27T11:56:04.312Z,2444.00
2018-12-27T11:57:04.324Z,2328.00
2018-12-27T11:58:04.344Z,2228.00
2018-12-27T11:59:04.357Z,2204.00
2018-12-27T12:00:04.365Z,2172.00
2018-12-27T12:01:04.380Z,2160.00
2018-12-27T12:02:04.392Z,2152.00
2018-12-27T12:03:04.422Z,2176.00
2018-12-27T12:04:04.418Z,2120.00
2018-12-27T12:05:04.430Z,2076.00
2018-12-27T12:06:04.444Z,2044.00
2018-12-27T12:07:04.459Z,2028.00
2018-12-27T12:08:04.471Z,2008.00
2018-12-27T12:09:04.493Z,1988.00
2018-12-27T12:10:04.502Z,1972.00
2018-12-27T12:11:04.508Z,1952.00
2018-12-27T12:12:04.525Z,1980.00
2018-12-27T12:13:04.536Z,1932.00
2018-12-27T12:14:04.551Z,1924.00
2018-12-27T12:15:04.565Z,1916.00
2018-12-27T12:16:04.579Z,1904.00
2018-12-27T12:17:04.591Z,1904.00
2018-12-27T12:18:04.648Z,1908.00
2018-12-27T12:19:04.618Z,1876.00
2018-12-27T12:20:04.631Z,1864.00
2018-12-27T12:21:04.644Z,1860.00
2018-12-27T12:22:04.658Z,1864.00
2018-12-27T12:23:04.669Z,1860.00
2018-12-27T12:24:04.686Z,1856.00
2018-12-27T12:25:04.694Z,1856.00
2018-12-27T12:26:04.708Z,1848.00
2018-12-27T12:27:04.726Z,1852.00
2018-12-27T12:28:04.744Z,1856.00
2018-12-27T12:29:04.751Z,1860.00
2018-12-27T12:30:04.769Z,1868.00
2018-12-27T12:31:04.775Z,1880.00
2018-12-27T12:32:04.791Z,1888.00
2018-12-27T12:33:04.802Z,1888.00
2018-12-27T12:34:04.818Z,1880.00
2018-12-27T12:35:04.832Z,1880.00
2018-12-27T12:36:10.645Z,1884.00
2018-12-27T12:37:04.858Z,1880.00
2018-12-27T12:38:04.868Z,1868.00
2018-12-27T12:39:04.883Z,1844.00
2018-12-27T12:40:04.896Z,1812.00
2018-12-27T12:41:04.917Z,1780.00
2018-12-27T12:42:04.929Z,1752.00
2018-12-27T12:43:04.939Z,1724.00
2018-12-27T12:44:04.955Z,1700.00
2018-12-27T12:45:04.967Z,1680.00
2018-12-27T12:46:04.980Z,1664.00
2018-12-27T12:47:04.993Z,1660.00
2018-12-27T12:48:05.001Z,1660.00
2018-12-27T12:49:05.018Z,1664.00
2018-12-27T12:50:05.031Z,1676.00
2018-12-27T12:51:05.046Z,1692.00
2018-12-27T12:52:05.064Z,1704.00
2018-12-27T12:53:05.076Z,1716.00
2018-12-27T12:54:05.093Z,1724.00
2018-12-27T12:55:05.099Z,1732.00
2018-12-27T12:56:05.117Z,1740.00
2018-12-27T12:57:05.130Z,1744.00
2018-12-27T12:58:05.139Z,1748.00
2018-12-27T12:59:05.163Z,1752.00
2018-12-27T13:00:05.168Z,1748.00
2018-12-27T13:01:05.186Z,1752.00
2018-12-27T13:02:05.202Z,1752.00
2018-12-27T13:03:05.211Z,1748.00
2018-12-27T13:04:05.258Z,1748.00
2018-12-27T13:05:05.234Z,1744.00
2018-12-27T13:06:05.247Z,1744.00
2018-12-27T13:07:05.262Z,1748.00
2018-12-27T13:08:05.281Z,1748.00
2018-12-27T13:09:05.297Z,1744.00
2018-12-27T13:10:05.305Z,1736.00
2018-12-27T13:11:05.313Z,1720.00
2018-12-27T13:12:05.327Z,1708.00
2018-12-27T13:13:05.342Z,1700.00
2018-12-27T13:14:05.360Z,1680.00
2018-12-27T13:15:05.371Z,1660.00
2018-12-27T13:16:05.381Z,1640.00
2018-12-27T13:17:05.394Z,1620.00
2018-12-27T13:18:05.413Z,1592.00
2018-12-27T13:19:05.425Z,1552.00
2018-12-27T13:20:05.438Z,1512.00
2018-12-27T13:21:05.467Z,1476.00
2018-12-27T13:22:05.515Z,1440.00
2018-12-27T13:23:05.478Z,1404.00
2018-12-27T13:24:05.502Z,1364.00
2018-12-27T13:25:05.506Z,1324.00
2018-12-27T13:26:05.515Z,1292.00
2018-12-27T13:27:05.531Z,1268.00
2018-12-27T13:28:05.543Z,1244.00
2018-12-27T13:29:05.559Z,1224.00
2018-12-27T13:30:05.572Z,1204.00
2018-12-27T13:31:05.590Z,1180.00
2018-12-27T13:32:05.601Z,1164.00
2018-12-27T13:33:05.615Z,1148.00
2018-12-27T13:34:05.624Z,1140.00
2018-12-27T13:35:05.644Z,1136.00
2018-12-27T13:36:05.653Z,1136.00
2018-12-27T13:37:05.667Z,1140.00
2018-12-27T13:38:05.675Z,1144.00
2018-12-27T13:39:05.693Z,1140.00
2018-12-27T13:40:05.708Z,1132.00
2018-12-27T13:41:05.718Z,1120.00
2018-12-27T13:42:05.730Z,1108.00
2018-12-27T13:43:05.747Z,1100.00
2018-12-27T13:44:05.761Z,1100.00
2018-12-27T13:45:06.335Z,1092.00
2018-12-27T13:46:05.791Z,1088.00
2018-12-27T13:47:05.800Z,1080.00
2018-12-27T13:48:05.822Z,1072.00
2018-12-27T13:49:05.831Z,1060.00
2018-12-27T13:50:05.840Z,1048.00
2018-12-27T13:51:05.852Z,1044.00